createdAt,value
2023-05-10T00:00:30.250Z,100832.66
2023-05-10T00:02:57.847Z,100830.22
2023-05-10T00:05:25.756Z,100839.06
2023-05-10T00:07:53.206Z,100828.38
2023-05-10T00:10:20.710Z,100823.78
2023-05-10T00:12:48.475Z,100827.16
2023-05-10T00:15:15.956Z,100829.06
2023-05-10T00:17:43.825Z,100831.59
2023-05-10T00:20:11.968Z,100826.69
2023-05-10T00:22:39.726Z,100820.72
2023-05-10T00:25:08.120Z,100826.50
2023-05-10T00:27:35.861Z,100825.16
2023-05-10T00:30:03.573Z,100824.13
2023-05-10T00:32:31.996Z,100827.97
2023-05-10T00:34:59.559Z,100826.63
2023-05-10T00:37:28.292Z,100819.81
2023-05-10T00:39:56.524Z,100824.78
2023-05-10T00:42:23.975Z,100825.09
2023-05-10T00:44:53.524Z,100822.34
2023-05-10T00:47:21.200Z,100827.53
2023-05-10T00:49:48.691Z,100824.25
2023-05-10T00:52:16.287Z,100817.16
2023-05-10T00:54:43.891Z,100819.88
2023-05-10T00:57:12.314Z,100822.94
2023-05-10T00:59:39.836Z,100817.75
2023-05-10T01:02:07.887Z,100823.25
2023-05-10T01:04:36.572Z,100824.34
2023-05-10T01:07:04.724Z,100821.59
2023-05-10T01:09:32.378Z,100823.84
2023-05-10T01:12:00.171Z,100818.63
2023-05-10T01:14:27.862Z,100821.69
2023-05-10T01:16:55.609Z,100816.47
2023-05-10T01:19:26.527Z,100819.50
2023-05-10T01:22:31.482Z,100820.13
2023-05-10T01:24:58.882Z,100816.56
2023-05-10T01:27:52.564Z,100820.72
2023-05-10T01:30:39.715Z,100826.75
2023-05-10T01:33:20.681Z,100827.81
2023-05-10T01:36:09.835Z,100821.84
2023-05-10T01:38:48.132Z,100816.63
2023-05-10T01:41:19.763Z,100813.59
2023-05-10T01:43:59.698Z,100815.22
2023-05-10T01:46:37.171Z,100819.88
2023-05-10T01:49:28.294Z,100817.97
2023-05-10T01:51:58.110Z,100809.81
2023-05-10T01:54:26.865Z,100811.75
2023-05-10T01:56:59.943Z,100809.31
2023-05-10T01:59:30.755Z,100808.78
2023-05-10T02:01:59.107Z,100808.28
2023-05-10T02:04:26.958Z,100805.00
2023-05-10T02:06:54.840Z,100811.59
2023-05-10T02:09:22.756Z,100810.78
2023-05-10T02:11:52.104Z,100807.25
2023-05-10T02:14:28.019Z,100810.28
2023-05-10T02:16:55.496Z,100805.59
2023-05-10T02:19:23.388Z,100807.75
2023-05-10T02:21:52.337Z,100801.13
2023-05-10T02:24:19.796Z,100799.50
2023-05-10T02:26:47.418Z,100800.63
2023-05-10T02:29:15.618Z,100799.31
2023-05-10T02:31:44.672Z,100799.50
2023-05-10T02:34:12.392Z,100802.78
2023-05-10T02:36:40.184Z,100806.63
2023-05-10T02:39:11.078Z,100802.25
2023-05-10T02:41:38.748Z,100804.41
2023-05-10T02:44:06.489Z,100812.66
2023-05-10T02:46:34.657Z,100804.41
2023-05-10T02:49:03.731Z,100806.03
2023-05-10T02:51:34.776Z,100807.66
2023-05-10T02:54:09.708Z,100810.69
2023-05-10T02:56:37.459Z,100811.03
2023-05-10T02:59:06.014Z,100813.75
2023-05-10T03:01:33.644Z,100815.38
2023-05-10T03:04:01.318Z,100813.16
2023-05-10T03:06:29.718Z,100821.09
2023-05-10T03:08:57.668Z,100813.69
2023-05-10T03:11:40.925Z,100819.47
2023-05-10T03:14:22.100Z,100820.88
2023-05-10T03:17:09.583Z,100820.88
2023-05-10T03:19:55.300Z,100818.91
2023-05-10T03:22:32.442Z,100819.16
2023-05-10T03:24:59.988Z,100814.81
2023-05-10T03:27:30.797Z,100819.47
2023-05-10T03:29:58.230Z,100816.44
2023-05-10T03:32:25.758Z,100819.97
2023-05-10T03:34:53.311Z,100818.06
2023-05-10T03:37:20.855Z,100824.66
2023-05-10T03:39:48.667Z,100820.50
2023-05-10T03:42:16.340Z,100823.75
2023-05-10T03:44:43.816Z,100826.78
2023-05-10T03:47:11.397Z,100826.19
2023-05-10T03:49:39.387Z,100824.50
2023-05-10T03:52:07.565Z,100825.81
2023-05-10T03:54:35.912Z,100827.25
2023-05-10T03:57:04.034Z,100826.13
2023-05-10T03:59:32.520Z,100826.66
2023-05-10T04:02:00.348Z,100826.03
2023-05-10T04:04:28.395Z,100829.91
2023-05-10T04:06:55.986Z,100823.00
2023-05-10T04:09:23.637Z,100828.50
2023-05-10T04:11:51.334Z,100827.09
2023-05-10T04:14:18.870Z,100827.09
2023-05-10T04:16:46.678Z,100821.00
2023-05-10T04:19:14.271Z,100825.91
2023-05-10T04:21:41.802Z,100827.53
2023-05-10T04:24:09.522Z,100824.19
2023-05-10T04:26:37.099Z,100819.31
2023-05-10T04:29:04.926Z,100824.72
2023-05-10T04:31:32.558Z,100821.47
2023-05-10T04:34:00.364Z,100823.59
2023-05-10T04:36:28.804Z,100824.13
2023-05-10T04:38:56.227Z,100821.88
2023-05-10T04:41:24.160Z,100825.94
2023-05-10T04:43:51.655Z,100821.50
2023-05-10T04:46:19.220Z,100822.34
2023-05-10T04:48:46.763Z,100819.28
2023-05-10T04:51:14.273Z,100817.06
2023-05-10T04:53:44.649Z,100814.00
2023-05-10T04:56:17.089Z,100818.28
2023-05-10T04:58:45.106Z,100816.47
2023-05-10T05:01:12.753Z,100814.28
2023-05-10T05:03:40.527Z,100820.19
2023-05-10T05:06:08.310Z,100813.53
2023-05-10T05:08:36.143Z,100811.50
2023-05-10T05:11:03.946Z,100814.97
2023-05-10T05:13:33.618Z,100818.13
2023-05-10T05:16:02.739Z,100824.75
2023-05-10T05:18:30.587Z,100818.88
2023-05-10T05:20:58.840Z,100816.00
2023-05-10T05:23:26.831Z,100820.31
2023-05-10T05:25:55.010Z,100821.34
2023-05-10T05:28:22.865Z,100813.78
2023-05-10T05:30:50.357Z,100812.88
2023-05-10T05:33:18.477Z,100818.88
2023-05-10T05:35:51.656Z,100811.16
2023-05-10T05:38:19.248Z,100818.28
2023-05-10T05:40:46.980Z,100816.34
2023-05-10T05:43:14.600Z,100817.03
2023-05-10T05:45:42.332Z,100808.06
2023-05-10T05:48:10.456Z,100804.13
2023-05-10T05:50:37.934Z,100800.13
2023-05-10T05:53:05.419Z,100809.38
2023-05-10T05:55:33.066Z,100811.53
2023-05-10T05:58:00.510Z,100803.88
2023-05-10T06:00:28.094Z,100806.22
2023-05-10T06:02:55.634Z,100809.91
2023-05-10T06:05:23.382Z,100807.88
2023-05-10T06:07:50.836Z,100805.31
2023-05-10T06:10:18.323Z,100800.53
2023-05-10T06:12:46.154Z,100797.66
2023-05-10T06:15:13.727Z,100791.34
2023-05-10T06:17:41.534Z,100800.78
2023-05-10T06:20:09.839Z,100801.50
2023-05-10T06:22:37.898Z,100797.44
2023-05-10T06:25:05.664Z,100790.31
2023-05-10T06:27:33.521Z,100801.06
2023-05-10T06:30:12.402Z,100800.69
2023-05-10T06:32:41.951Z,100798.22
2023-05-10T06:35:10.116Z,100799.34
2023-05-10T06:37:38.030Z,100793.63
2023-05-10T06:40:07.572Z,100804.00
2023-05-10T06:42:36.079Z,100800.66
2023-05-10T06:45:04.786Z,100792.75
2023-05-10T06:47:32.826Z,100800.66
2023-05-10T06:50:00.669Z,100794.75
2023-05-10T06:52:28.264Z,100789.63
2023-05-10T06:54:55.744Z,100790.22
2023-05-10T06:57:31.300Z,100785.25
2023-05-10T07:00:05.254Z,100790.00
2023-05-10T07:02:33.397Z,100785.00
2023-05-10T07:05:03.109Z,100787.44
2023-05-10T07:07:32.457Z,100787.94
2023-05-10T07:10:00.328Z,100771.72
2023-05-10T07:12:27.903Z,100780.28
2023-05-10T07:14:55.470Z,100781.69
2023-05-10T07:17:23.259Z,100788.03
2023-05-10T07:19:51.357Z,100782.56
2023-05-10T07:22:19.011Z,100778.72
2023-05-10T07:24:47.260Z,100781.34
2023-05-10T07:27:15.076Z,100776.81
2023-05-10T07:29:43.227Z,100778.28
2023-05-10T07:32:10.968Z,100785.63
2023-05-10T07:34:38.583Z,100788.19
2023-05-10T07:37:07.334Z,100783.94
2023-05-10T07:39:34.841Z,100786.00
2023-05-10T07:42:02.396Z,100790.34
2023-05-10T07:44:30.194Z,100797.75
2023-05-10T07:46:57.762Z,100786.88
2023-05-10T07:49:25.441Z,100796.38
2023-05-10T07:51:52.982Z,100784.25
2023-05-10T07:54:20.576Z,100790.66
2023-05-10T07:56:48.952Z,100777.97
2023-05-10T07:59:17.316Z,100779.88
2023-05-10T08:01:44.943Z,100765.88
2023-05-10T08:04:12.961Z,100774.00
2023-05-10T08:06:41.338Z,100770.09
2023-05-10T08:09:09.785Z,100767.50
2023-05-10T08:11:37.725Z,100771.84
2023-05-10T08:14:05.480Z,100771.47
2023-05-10T08:16:33.561Z,100769.19
2023-05-10T08:19:01.412Z,100773.59
2023-05-10T08:21:29.385Z,100775.63
2023-05-10T08:23:57.014Z,100767.03
2023-05-10T08:26:24.627Z,100771.38
2023-05-10T08:28:52.139Z,100785.00
2023-05-10T08:31:19.750Z,100777.38
2023-05-10T08:33:47.573Z,100772.47
2023-05-10T08:36:20.735Z,100770.09
2023-05-10T08:38:52.113Z,100768.84
2023-05-10T08:41:22.104Z,100763.03
2023-05-10T08:43:54.021Z,100754.97
2023-05-10T08:46:22.476Z,100756.06
2023-05-10T08:48:51.438Z,100755.31
2023-05-10T08:51:20.623Z,100746.91
2023-05-10T08:53:48.134Z,100749.53
2023-05-10T08:56:16.976Z,100750.72
2023-05-10T08:58:44.964Z,100756.00
2023-05-10T09:01:12.517Z,100768.38
2023-05-10T09:03:40.261Z,100754.97
2023-05-10T09:06:08.018Z,100757.19
2023-05-10T09:08:35.841Z,100748.47
2023-05-10T09:11:03.922Z,100749.25
2023-05-10T09:13:31.457Z,100750.06
2023-05-10T09:16:06.973Z,100749.06
2023-05-10T09:18:41.637Z,100738.06
2023-05-10T09:21:09.444Z,100734.41
2023-05-10T09:23:37.829Z,100729.75
2023-05-10T09:26:08.485Z,100733.34
2023-05-10T09:28:51.160Z,100731.09
2023-05-10T09:31:18.660Z,100719.16
2023-05-10T09:33:49.430Z,100720.97
2023-05-10T09:36:17.291Z,100719.72
2023-05-10T09:38:55.309Z,100717.94
2023-05-10T09:41:23.673Z,100716.28
2023-05-10T09:43:51.186Z,100716.97
2023-05-10T09:46:18.777Z,100717.44
2023-05-10T09:48:47.368Z,100712.16
2023-05-10T09:51:21.654Z,100710.84
2023-05-10T09:53:51.536Z,100705.53
2023-05-10T09:56:40.043Z,100704.41
2023-05-10T09:59:11.519Z,100706.69
2023-05-10T10:01:39.670Z,100705.41
2023-05-10T10:04:08.550Z,100709.59
2023-05-10T10:06:40.018Z,100696.31
2023-05-10T10:09:08.080Z,100694.84
2023-05-10T10:11:36.924Z,100699.03
2023-05-10T10:14:04.546Z,100696.78
2023-05-10T10:16:32.774Z,100698.41
2023-05-10T10:19:01.017Z,100692.38
2023-05-10T10:21:28.669Z,100695.97
2023-05-10T10:23:56.324Z,100702.47
2023-05-10T10:26:23.853Z,100699.88
2023-05-10T10:29:10.482Z,100709.94
2023-05-10T10:31:41.964Z,100702.47
2023-05-10T10:34:09.406Z,100708.50
2023-05-10T10:36:48.120Z,100702.66
2023-05-10T10:39:15.729Z,100699.38
2023-05-10T10:41:57.774Z,100690.94
2023-05-10T10:44:38.050Z,100695.34
2023-05-10T10:47:12.636Z,100693.53
2023-05-10T10:49:53.282Z,100691.63
2023-05-10T10:52:34.586Z,100687.72
2023-05-10T10:55:02.504Z,100685.59
2023-05-10T10:57:47.203Z,100680.38
2023-05-10T11:00:37.153Z,100682.84
2023-05-10T11:03:15.741Z,100681.88
2023-05-10T11:05:47.504Z,100687.03
2023-05-10T11:08:29.013Z,100683.81
2023-05-10T11:11:10.195Z,100684.94
2023-05-10T11:13:46.763Z,100679.59
2023-05-10T11:16:19.798Z,100673.06
2023-05-10T11:19:05.090Z,100669.34
2023-05-10T11:21:33.785Z,100680.84
2023-05-10T11:24:01.964Z,100672.72
2023-05-10T11:26:34.492Z,100676.59
2023-05-10T11:29:03.036Z,100681.66
2023-05-10T11:31:30.972Z,100678.56
2023-05-10T11:33:59.876Z,100684.56
2023-05-10T11:36:29.212Z,100684.94
2023-05-10T11:38:57.461Z,100687.84
2023-05-10T11:41:25.541Z,100695.63
2023-05-10T11:43:54.123Z,100702.47
2023-05-10T11:46:23.040Z,100696.47
2023-05-10T11:48:52.317Z,100695.63
2023-05-10T11:51:24.450Z,100702.91
2023-05-10T11:53:56.228Z,100700.00
2023-05-10T11:56:24.682Z,100701.97
2023-05-10T11:58:56.819Z,100688.97
2023-05-10T12:01:27.869Z,100678.75
2023-05-10T12:03:59.593Z,100683.59
2023-05-10T12:06:32.305Z,100683.59
2023-05-10T12:09:00.224Z,100674.19
2023-05-10T12:11:29.568Z,100679.22
2023-05-10T12:13:57.539Z,100684.91
2023-05-10T12:16:26.879Z,100679.50
2023-05-10T12:18:57.155Z,100676.44
2023-05-10T12:21:24.889Z,100670.41
2023-05-10T12:23:53.622Z,100674.81
2023-05-10T12:26:27.608Z,100673.97
2023-05-10T12:28:55.717Z,100672.31
2023-05-10T12:31:23.663Z,100667.91
2023-05-10T12:33:51.135Z,100675.72
2023-05-10T12:36:19.043Z,100672.03
2023-05-10T12:38:49.328Z,100675.31
2023-05-10T12:41:18.172Z,100681.66
2023-05-10T12:43:46.638Z,100676.78
2023-05-10T12:46:15.450Z,100668.50
2023-05-10T12:48:43.840Z,100668.81
2023-05-10T12:51:13.323Z,100683.44
2023-05-10T12:53:42.733Z,100668.97
2023-05-10T12:56:12.304Z,100668.66
2023-05-10T12:58:39.687Z,100672.53
2023-05-10T13:01:35.048Z,100667.69
2023-05-10T13:04:02.529Z,100678.06
2023-05-10T13:06:30.555Z,100681.97
2023-05-10T13:08:58.714Z,100684.91
2023-05-10T13:11:26.447Z,100691.25
2023-05-10T13:13:54.080Z,100695.97
2023-05-10T13:16:21.670Z,100706.03
2023-05-10T13:18:49.479Z,100710.28
2023-05-10T13:21:17.703Z,100695.00
2023-05-10T13:23:45.227Z,100699.56
2023-05-10T13:26:12.749Z,100691.25
2023-05-10T13:28:40.377Z,100689.50
2023-05-10T13:31:08.851Z,100691.91
2023-05-10T13:33:36.690Z,100682.00
2023-05-10T13:36:04.560Z,100683.00
2023-05-10T13:38:32.594Z,100680.22
2023-05-10T13:41:00.192Z,100684.41
2023-05-10T13:43:28.231Z,100689.16
2023-05-10T13:45:56.000Z,100679.88
2023-05-10T13:48:23.776Z,100677.31
2023-05-10T13:50:51.323Z,100688.66
2023-05-10T13:53:19.496Z,100683.00
2023-05-10T13:56:37.701Z,100677.16
2023-05-10T13:59:05.386Z,100684.13
2023-05-10T14:01:33.081Z,100680.38
2023-05-10T14:04:01.354Z,100672.28
2023-05-10T14:06:29.329Z,100676.97
2023-05-10T14:08:57.504Z,100679.56
2023-05-10T14:11:25.147Z,100677.13
2023-05-10T14:13:52.717Z,100677.59
2023-05-10T14:16:21.347Z,100678.56
2023-05-10T14:18:49.019Z,100683.09
2023-05-10T14:21:16.746Z,100679.06
2023-05-10T14:23:44.711Z,100676.47
2023-05-10T14:26:12.452Z,100676.16
2023-05-10T14:28:40.115Z,100665.78
2023-05-10T14:31:07.769Z,100672.72
2023-05-10T14:33:35.996Z,100673.22
2023-05-10T14:36:04.635Z,100663.47
2023-05-10T14:38:32.372Z,100664.94
2023-05-10T14:40:59.896Z,100669.34
2023-05-10T14:43:29.164Z,100664.97
2023-05-10T14:45:56.993Z,100665.28
2023-05-10T14:48:24.519Z,100661.38
2023-05-10T14:50:53.566Z,100654.75
2023-05-10T14:53:46.841Z,100659.28
2023-05-10T14:56:14.510Z,100664.16
2023-05-10T14:58:42.348Z,100660.56
2023-05-10T15:01:09.900Z,100666.59
2023-05-10T15:03:38.178Z,100662.84
2023-05-10T15:06:06.858Z,100669.50
2023-05-10T15:08:34.505Z,100667.38
2023-05-10T15:11:02.539Z,100661.88
2023-05-10T15:13:30.132Z,100665.13
2023-05-10T15:15:57.979Z,100664.13
2023-05-10T15:18:25.734Z,100668.38
2023-05-10T15:20:53.379Z,100670.78
2023-05-10T15:23:20.906Z,100668.81
2023-05-10T15:25:50.585Z,100669.47
2023-05-10T15:28:18.460Z,100667.53
2023-05-10T15:30:46.142Z,100665.41
2023-05-10T15:33:13.934Z,100673.22
2023-05-10T15:35:42.184Z,100669.97
2023-05-10T15:38:10.767Z,100665.91
2023-05-10T15:40:38.382Z,100671.75
2023-05-10T15:43:08.975Z,100664.16
2023-05-10T15:45:37.748Z,100678.91
2023-05-10T15:48:05.661Z,100668.88
2023-05-10T15:50:33.313Z,100673.91
2023-05-10T15:53:01.112Z,100671.44
2023-05-10T15:55:29.015Z,100676.81
2023-05-10T15:57:56.632Z,100676.69
2023-05-10T16:00:24.374Z,100687.88
2023-05-10T16:02:54.184Z,100683.66
2023-05-10T16:05:22.641Z,100687.69
2023-05-10T16:07:50.409Z,100682.00
2023-05-10T16:10:18.048Z,100682.50
2023-05-10T16:12:45.916Z,100685.88
2023-05-10T16:15:13.589Z,100686.53
2023-05-10T16:17:41.943Z,100680.69
2023-05-10T16:20:10.117Z,100688.97
2023-05-10T16:22:37.708Z,100685.41
2023-05-10T16:25:06.326Z,100680.69
2023-05-10T16:27:34.205Z,100683.94
2023-05-10T16:30:02.246Z,100686.38
2023-05-10T16:32:30.558Z,100684.41
2023-05-10T16:34:59.119Z,100679.41
2023-05-10T16:37:26.803Z,100681.66
2023-05-10T16:39:54.353Z,100687.19
2023-05-10T16:42:22.033Z,100696.91
2023-05-10T16:44:49.745Z,100690.56
2023-05-10T16:47:17.384Z,100687.81
2023-05-10T16:49:45.037Z,100696.44
2023-05-10T16:52:12.622Z,100686.88
2023-05-10T16:54:40.344Z,100690.25
2023-05-10T16:57:08.669Z,100692.50
2023-05-10T16:59:36.481Z,100688.72
2023-05-10T17:02:04.169Z,100694.25
2023-05-10T17:04:31.976Z,100691.00
2023-05-10T17:06:59.541Z,100693.78
2023-05-10T17:09:27.562Z,100697.97
2023-05-10T17:11:55.713Z,100701.06
2023-05-10T17:14:23.476Z,100700.56
2023-05-10T17:16:52.862Z,100701.19
2023-05-10T17:19:20.645Z,100696.00
2023-05-10T17:21:48.225Z,100700.69
2023-05-10T17:24:15.877Z,100701.34
2023-05-10T17:26:43.560Z,100693.72
2023-05-10T17:29:11.362Z,100704.25
2023-05-10T17:31:39.299Z,100699.84
2023-05-10T17:34:07.027Z,100705.50
2023-05-10T17:36:34.609Z,100699.69
2023-05-10T17:39:02.210Z,100713.59
2023-05-10T17:41:29.818Z,100714.06
2023-05-10T17:43:57.791Z,100721.63
2023-05-10T17:46:25.557Z,100720.63
2023-05-10T17:48:53.475Z,100724.00
2023-05-10T17:51:21.185Z,100721.91
2023-05-10T17:53:48.954Z,100715.41
2023-05-10T17:56:16.730Z,100719.94
2023-05-10T17:58:44.465Z,100722.81
2023-05-10T18:01:12.233Z,100730.06
2023-05-10T18:03:40.183Z,100728.25
2023-05-10T18:06:07.776Z,100728.56
2023-05-10T18:08:35.639Z,100726.94
2023-05-10T18:11:03.299Z,100733.06
2023-05-10T18:13:31.022Z,100732.06
2023-05-10T18:15:58.581Z,100726.06
2023-05-10T18:18:26.474Z,100724.75
2023-05-10T18:20:56.831Z,100734.94
2023-05-10T18:23:24.729Z,100730.09
2023-05-10T18:25:52.557Z,100735.09
2023-05-10T18:28:20.148Z,100736.84
2023-05-10T18:30:47.904Z,100731.97
2023-05-10T18:33:16.080Z,100735.81
2023-05-10T18:35:43.674Z,100731.44
2023-05-10T18:38:12.618Z,100738.09
2023-05-10T18:40:41.004Z,100740.97
2023-05-10T18:43:09.118Z,100738.81
2023-05-10T18:45:36.783Z,100737.78
2023-05-10T18:48:04.630Z,100736.19
2023-05-10T18:50:32.872Z,100739.53
2023-05-10T18:53:00.413Z,100734.69
2023-05-10T18:55:28.498Z,100741.59
2023-05-10T18:57:56.414Z,100743.03
2023-05-10T19:00:24.209Z,100742.53
2023-05-10T19:02:53.675Z,100736.03
2023-05-10T19:05:21.410Z,100735.53
2023-05-10T19:07:49.053Z,100740.53
2023-05-10T19:10:16.734Z,100736.16
2023-05-10T19:12:44.380Z,100736.16
2023-05-10T19:15:12.159Z,100734.84
2023-05-10T19:17:41.346Z,100735.63
2023-05-10T19:20:11.422Z,100743.88
2023-05-10T19:22:54.186Z,100738.38
2023-05-10T19:25:29.497Z,100735.13
2023-05-10T19:27:59.945Z,100735.44
2023-05-10T19:30:30.506Z,100735.75
2023-05-10T19:32:58.440Z,100730.25
2023-05-10T19:35:26.114Z,100734.13
2023-05-10T19:37:53.650Z,100741.88
2023-05-10T19:40:21.289Z,100742.50
2023-05-10T19:42:48.830Z,100743.09
2023-05-10T19:45:16.925Z,100740.47
2023-05-10T19:47:45.166Z,100738.84
2023-05-10T19:50:12.969Z,100750.44
2023-05-10T19:52:41.124Z,100743.03
2023-05-10T19:55:10.233Z,100746.56
2023-05-10T19:57:38.490Z,100738.34
2023-05-10T20:00:10.602Z,100741.72
2023-05-10T20:02:41.750Z,100735.69
2023-05-10T20:05:10.320Z,100738.44
2023-05-10T20:07:38.598Z,100741.31
2023-05-10T20:10:07.343Z,100735.63
2023-05-10T20:12:37.373Z,100740.94
2023-05-10T20:15:07.567Z,100742.84
2023-05-10T20:17:35.613Z,100738.78
2023-05-10T20:20:03.981Z,100735.03
2023-05-10T20:22:33.261Z,100733.19
2023-05-10T20:25:00.784Z,100735.25
2023-05-10T20:27:28.603Z,100736.66
2023-05-10T20:29:56.595Z,100738.06
2023-05-10T20:32:24.111Z,100740.44
2023-05-10T20:34:51.952Z,100740.00
2023-05-10T20:37:19.695Z,100748.44
2023-05-10T20:39:49.807Z,100739.50
2023-05-10T20:42:18.068Z,100746.59
2023-05-10T20:44:45.565Z,100742.00
2023-05-10T20:47:14.689Z,100746.41
2023-05-10T20:49:42.883Z,100748.38
2023-05-10T20:52:13.137Z,100734.53
2023-05-10T20:54:40.709Z,100736.47
2023-05-10T20:57:08.215Z,100738.19
2023-05-10T20:59:35.938Z,100736.63
2023-05-10T21:02:03.495Z,100731.03
2023-05-10T21:04:31.168Z,100730.41
2023-05-10T21:06:58.832Z,100734.25
2023-05-10T21:09:26.710Z,100737.50
2023-05-10T21:11:55.016Z,100741.56
2023-05-10T21:14:22.521Z,100739.66
2023-05-10T21:16:51.344Z,100742.41
2023-05-10T21:19:19.034Z,100739.66
2023-05-10T21:21:46.581Z,100736.41
2023-05-10T21:24:14.093Z,100744.66
2023-05-10T21:26:42.083Z,100738.63
2023-05-10T21:29:09.453Z,100735.88
2023-05-10T21:31:36.981Z,100738.13
2023-05-10T21:34:04.994Z,100737.09
2023-05-10T21:36:32.547Z,100734.34
2023-05-10T21:39:00.137Z,100740.97
2023-05-10T21:41:30.779Z,100742.88
2023-05-10T21:44:00.144Z,100743.16
2023-05-10T21:46:27.780Z,100739.94
2023-05-10T21:48:55.836Z,100742.13
2023-05-10T21:51:23.365Z,100737.78
2023-05-10T21:53:50.935Z,100740.50
2023-05-10T21:56:18.522Z,100734.50
2023-05-10T21:58:45.963Z,100737.84
2023-05-10T22:01:15.140Z,100740.06
2023-05-10T22:03:42.650Z,100749.41
2023-05-10T22:06:10.239Z,100736.81
2023-05-10T22:08:37.865Z,100741.47
2023-05-10T22:11:05.617Z,100738.44
2023-05-10T22:13:33.384Z,100738.44
2023-05-10T22:16:00.907Z,100731.34
2023-05-10T22:18:28.581Z,100738.22
2023-05-10T22:20:56.114Z,100735.78
2023-05-10T22:23:24.101Z,100739.66
2023-05-10T22:25:52.097Z,100735.28
2023-05-10T22:28:19.543Z,100736.38
2023-05-10T22:30:48.312Z,100738.03
2023-05-10T22:33:15.898Z,100735.78
2023-05-10T22:35:43.429Z,100736.59
2023-05-10T22:38:11.185Z,100727.25
2023-05-10T22:40:39.391Z,100727.56
2023-05-10T22:43:07.068Z,100729.25
2023-05-10T22:45:35.207Z,100726.03
2023-05-10T22:48:05.268Z,100727.66
2023-05-10T22:50:33.131Z,100732.00
2023-05-10T22:53:00.443Z,100730.88
2023-05-10T22:55:27.934Z,100725.69
2023-05-10T22:57:55.305Z,100722.16
2023-05-10T23:00:22.997Z,100726.81
2023-05-10T23:02:50.595Z,100719.72
2023-05-10T23:05:18.307Z,100727.44
2023-05-10T23:07:48.438Z,100725.56
2023-05-10T23:10:16.358Z,100724.53
2023-05-10T23:12:44.034Z,100719.13
2023-05-10T23:15:11.915Z,100725.72
2023-05-10T23:17:39.657Z,100722.47
2023-05-10T23:20:07.758Z,100728.56
2023-05-10T23:22:36.171Z,100732.38
2023-05-10T23:25:03.918Z,100735.41
2023-05-10T23:27:32.031Z,100726.56
2023-05-10T23:29:59.526Z,100729.88
2023-05-10T23:32:27.218Z,100730.69
2023-05-10T23:34:54.815Z,100738.91
2023-05-10T23:37:22.370Z,100735.34
2023-05-10T23:39:49.948Z,100735.13
2023-05-10T23:42:17.408Z,100731.06
2023-05-10T23:44:44.834Z,100731.66
2023-05-10T23:47:12.769Z,100739.88
2023-05-10T23:49:42.290Z,100733.28
2023-05-10T23:52:09.955Z,100727.78
2023-05-10T23:54:37.529Z,100732.44
2023-05-10T23:57:05.094Z,100733.28
2023-05-10T23:59:33.318Z,100738.53
